createdAt,value
2022-10-14T04:01:00.340Z,12.50
2022-10-14T04:02:00.851Z,12.47
2022-10-14T04:03:00.788Z,12.49
2022-10-14T04:04:00.257Z,12.49
2022-10-14T04:05:01.178Z,12.49
2022-10-14T04:06:00.254Z,12.49
2022-10-14T04:07:00.256Z,12.47
2022-10-14T04:08:00.377Z,12.46
2022-10-14T04:09:00.463Z,12.46
2022-10-14T04:10:00.310Z,12.46
2022-10-14T04:11:00.322Z,12.45
2022-10-14T04:12:00.173Z,12.45
2022-10-14T04:13:11.523Z,12.42
2022-10-14T04:14:00.142Z,12.42
2022-10-14T04:15:00.127Z,12.41
2022-10-14T04:16:00.104Z,12.41
2022-10-14T04:17:00.298Z,12.39
2022-10-14T04:18:00.086Z,12.38
2022-10-14T04:19:00.100Z,12.35
2022-10-14T04:20:00.020Z,12.35
2022-10-14T04:21:00.019Z,12.37
2022-10-14T04:22:00.002Z,12.34
2022-10-14T04:23:00.010Z,12.35
2022-10-14T04:24:02.669Z,12.34
2022-10-14T04:25:00.031Z,12.32
2022-10-14T04:25:59.947Z,12.31
2022-10-14T04:26:59.969Z,12.29
2022-10-14T04:27:59.929Z,12.28
2022-10-14T04:28:59.995Z,12.29
2022-10-14T04:29:59.908Z,12.32
2022-10-14T04:30:59.938Z,12.32
2022-10-14T04:31:59.887Z,12.32
2022-10-14T04:32:59.860Z,12.34
2022-10-14T04:33:59.851Z,12.34
2022-10-14T04:34:59.827Z,12.34
2022-10-14T04:35:59.825Z,12.34
2022-10-14T04:36:59.856Z,12.32
2022-10-14T04:37:59.818Z,12.32
2022-10-14T04:38:59.769Z,12.34
2022-10-14T04:39:59.797Z,12.32
2022-10-14T04:40:59.768Z,12.32
2022-10-14T04:41:59.785Z,12.34
2022-10-14T04:42:59.842Z,12.35
2022-10-14T04:43:59.720Z,12.34
2022-10-14T04:44:59.763Z,12.34
2022-10-14T04:45:59.697Z,12.32
2022-10-14T04:47:06.695Z,12.31
2022-10-14T04:47:59.658Z,12.32
2022-10-14T04:48:59.687Z,12.32
2022-10-14T04:49:59.627Z,12.32
2022-10-14T04:50:59.637Z,12.32
2022-10-14T04:51:59.596Z,12.34
2022-10-14T04:52:59.612Z,12.34
2022-10-14T04:53:59.622Z,12.34
2022-10-14T04:54:59.670Z,12.37
2022-10-14T04:55:59.546Z,12.38
2022-10-14T04:56:59.561Z,12.38
2022-10-14T04:57:59.517Z,12.37
2022-10-14T04:58:59.545Z,12.38
2022-10-14T04:59:59.485Z,12.35
2022-10-14T05:00:59.534Z,12.35
2022-10-14T05:01:59.515Z,12.37
2022-10-14T05:02:59.465Z,12.35
2022-10-14T05:03:59.445Z,12.35
2022-10-14T05:04:59.431Z,12.35
2022-10-14T05:05:59.414Z,12.35
2022-10-14T05:06:59.468Z,12.34
2022-10-14T05:07:59.383Z,12.34
2022-10-14T05:08:59.373Z,12.34
2022-10-14T05:09:59.368Z,12.34
2022-10-14T05:10:59.347Z,12.35
2022-10-14T05:11:59.375Z,12.34
2022-10-14T05:12:59.415Z,12.35
2022-10-14T05:13:59.319Z,12.32
2022-10-14T05:14:59.441Z,12.34
2022-10-14T05:15:59.303Z,12.32
2022-10-14T05:16:59.277Z,12.31
2022-10-14T05:17:59.256Z,12.31
2022-10-14T05:18:59.271Z,12.31
2022-10-14T05:19:59.301Z,12.31
2022-10-14T05:20:59.213Z,12.29
2022-10-14T05:21:59.212Z,12.29
2022-10-14T05:22:59.189Z,12.29
2022-10-14T05:23:59.232Z,12.28
2022-10-14T05:24:59.159Z,12.28
2022-10-14T05:25:59.160Z,12.28
2022-10-14T05:26:59.143Z,12.28
2022-10-14T05:27:59.120Z,12.27
2022-10-14T05:28:59.164Z,12.27
2022-10-14T05:29:59.161Z,12.27
2022-10-14T05:30:59.079Z,12.27
2022-10-14T05:31:59.069Z,12.28
2022-10-14T05:32:59.058Z,12.27
2022-10-14T05:33:59.047Z,12.28
2022-10-14T05:34:59.028Z,12.27
2022-10-14T05:35:59.742Z,12.23
2022-10-14T05:36:59.017Z,12.21
2022-10-14T05:38:03.933Z,12.20
2022-10-14T05:38:59.978Z,12.19
2022-10-14T05:39:58.960Z,12.19
2022-10-14T05:40:58.956Z,12.17
2022-10-14T05:41:58.977Z,12.16
2022-10-14T05:42:58.926Z,12.17
2022-10-14T05:43:58.910Z,12.16
2022-10-14T05:44:58.895Z,12.17
2022-10-14T05:45:58.878Z,12.16
2022-10-14T05:46:58.880Z,12.16
2022-10-14T05:47:58.914Z,12.14
2022-10-14T05:48:58.837Z,12.14
2022-10-14T05:49:58.826Z,12.14
2022-10-14T05:50:58.815Z,12.16
2022-10-14T05:51:58.942Z,12.17
2022-10-14T05:52:58.786Z,12.17
2022-10-14T05:53:58.826Z,12.17
2022-10-14T05:54:58.761Z,12.21
2022-10-14T05:55:58.744Z,12.23
2022-10-14T05:56:58.743Z,12.24
2022-10-14T05:57:58.722Z,12.27
2022-10-14T05:58:58.711Z,12.28
2022-10-14T05:59:59.847Z,12.28
2022-10-14T06:00:58.691Z,12.31
2022-10-14T06:01:58.669Z,12.31
2022-10-14T06:02:58.743Z,12.32
2022-10-14T06:03:58.641Z,12.34
2022-10-14T06:04:58.637Z,12.35
2022-10-14T06:05:58.659Z,12.35
2022-10-14T06:06:58.602Z,12.37
2022-10-14T06:07:58.603Z,12.38
2022-10-14T06:08:58.644Z,12.39
2022-10-14T06:09:58.674Z,12.41
2022-10-14T06:10:58.554Z,12.42
2022-10-14T06:11:58.612Z,12.46
2022-10-14T06:12:58.531Z,12.46
2022-10-14T06:13:58.560Z,12.47
2022-10-14T06:14:58.561Z,12.50
2022-10-14T06:15:58.579Z,12.53
2022-10-14T06:16:58.481Z,12.54
2022-10-14T06:17:58.462Z,12.56
2022-10-14T06:18:58.450Z,12.57
2022-10-14T06:19:58.430Z,12.60
2022-10-14T06:20:58.487Z,12.60
2022-10-14T06:21:58.410Z,12.64
2022-10-14T06:22:58.401Z,12.62
2022-10-14T06:23:58.379Z,12.65
2022-10-14T06:25:03.834Z,12.67
2022-10-14T06:25:59.397Z,12.70
2022-10-14T06:26:58.338Z,12.72
2022-10-14T06:27:58.347Z,12.74
2022-10-14T06:28:58.375Z,12.78
2022-10-14T06:29:58.299Z,12.79
2022-10-14T06:30:58.286Z,12.82
2022-10-14T06:31:58.299Z,12.85
2022-10-14T06:32:58.266Z,12.87
2022-10-14T06:33:58.244Z,12.89
2022-10-14T06:34:58.265Z,12.92
2022-10-14T06:35:58.216Z,12.95
2022-10-14T06:37:02.208Z,12.96
2022-10-14T06:37:58.185Z,12.95
2022-10-14T06:38:58.846Z,12.95
2022-10-14T06:39:58.255Z,13.00
2022-10-14T06:40:58.163Z,13.01
2022-10-14T06:41:58.134Z,13.01
2022-10-14T06:42:58.115Z,13.04
2022-10-14T06:43:58.103Z,13.07
2022-10-14T06:44:58.204Z,13.08
2022-10-14T06:45:58.440Z,13.10
2022-10-14T06:46:58.261Z,13.11
2022-10-14T06:47:58.144Z,13.14
2022-10-14T06:48:58.067Z,13.19
2022-10-14T06:49:58.326Z,13.23
2022-10-14T06:50:58.013Z,13.25
2022-10-14T06:51:57.997Z,13.28
2022-10-14T06:52:57.981Z,13.32
2022-10-14T06:53:57.966Z,13.33
2022-10-14T06:54:58.484Z,13.38
2022-10-14T06:55:57.945Z,13.41
2022-10-14T06:56:57.932Z,13.42
2022-10-14T06:57:57.911Z,13.45
2022-10-14T06:58:57.902Z,13.44
2022-10-14T06:59:57.889Z,13.46
2022-10-14T07:01:57.912Z,13.54
2022-10-14T07:02:57.850Z,13.57
2022-10-14T07:03:57.841Z,13.60
2022-10-14T07:04:57.831Z,13.66
2022-10-14T07:05:57.810Z,13.69
2022-10-14T07:06:57.834Z,13.73
2022-10-14T07:07:57.826Z,13.77
2022-10-14T07:08:57.777Z,13.82
2022-10-14T07:09:57.760Z,13.89
2022-10-14T07:10:57.748Z,13.95
2022-10-14T07:11:57.763Z,14.02
2022-10-14T07:12:57.917Z,14.10
2022-10-14T07:13:57.707Z,14.15
2022-10-14T07:14:57.698Z,14.21
2022-10-14T07:15:57.683Z,14.25
2022-10-14T07:16:57.812Z,14.32
2022-10-14T07:17:57.659Z,14.33
2022-10-14T07:18:57.646Z,14.37
2022-10-14T07:19:57.638Z,14.40
2022-10-14T07:20:57.610Z,14.43
2022-10-14T07:21:57.608Z,14.45
2022-10-14T07:22:57.965Z,14.50
2022-10-14T07:23:57.567Z,14.51
2022-10-14T07:24:57.571Z,14.54
2022-10-14T07:25:57.549Z,14.52
2022-10-14T07:26:57.618Z,14.51
2022-10-14T07:27:57.522Z,14.51
2022-10-14T07:28:57.726Z,14.51
2022-10-14T07:29:57.496Z,14.52
2022-10-14T07:30:57.506Z,14.52
2022-10-14T07:31:57.471Z,14.55
2022-10-14T07:32:57.475Z,14.57
2022-10-14T07:33:57.437Z,14.58
2022-10-14T07:34:57.465Z,14.61
2022-10-14T07:35:57.948Z,14.60
2022-10-14T07:36:57.407Z,14.62
2022-10-14T07:37:57.395Z,14.61
2022-10-14T07:38:57.376Z,14.57
2022-10-14T07:39:57.370Z,14.55
2022-10-14T07:40:57.353Z,14.55
2022-10-14T07:41:57.364Z,14.55
2022-10-14T07:42:57.323Z,14.55
2022-10-14T07:43:57.311Z,14.55
2022-10-14T07:44:57.304Z,14.57
2022-10-14T07:45:57.286Z,14.58
2022-10-14T07:46:57.343Z,14.60
2022-10-14T07:47:57.255Z,14.68
2022-10-14T07:48:57.911Z,14.72
2022-10-14T07:49:57.233Z,14.75
2022-10-14T07:50:57.273Z,14.83
2022-10-14T07:51:57.203Z,14.94
2022-10-14T07:53:00.991Z,15.03
2022-10-14T07:53:57.185Z,15.14
2022-10-14T07:54:57.171Z,15.25
2022-10-14T07:55:57.153Z,15.21
2022-10-14T07:56:57.193Z,15.16
2022-10-14T07:57:57.142Z,15.10
2022-10-14T07:58:57.116Z,15.02
2022-10-14T07:59:57.118Z,14.96
2022-10-14T08:00:57.107Z,14.92
2022-10-14T08:01:57.152Z,14.92
2022-10-14T08:02:57.263Z,14.94
2022-10-14T08:03:57.055Z,15.02
2022-10-14T08:05:13.201Z,15.11
2022-10-14T08:05:58.020Z,15.19
2022-10-14T08:06:57.015Z,15.20
2022-10-14T08:07:56.991Z,15.21
2022-10-14T08:08:57.141Z,15.25
2022-10-14T08:09:56.969Z,15.23
2022-10-14T08:10:56.971Z,15.21
2022-10-14T08:11:56.946Z,15.21
2022-10-14T08:12:56.940Z,15.20
2022-10-14T08:13:56.918Z,15.17
2022-10-14T08:14:56.969Z,15.14
2022-10-14T08:15:56.896Z,15.16
2022-10-14T08:16:56.909Z,15.19
2022-10-14T08:17:56.894Z,15.17
2022-10-14T08:18:56.860Z,15.21
2022-10-14T08:19:56.849Z,15.27
2022-10-14T08:20:56.860Z,15.34
2022-10-14T08:21:56.823Z,15.36
2022-10-14T08:22:56.799Z,15.39
2022-10-14T08:23:56.788Z,15.28
2022-10-14T08:24:56.769Z,15.19
2022-10-14T08:25:56.769Z,15.19
2022-10-14T08:26:56.907Z,15.23
2022-10-14T08:27:56.732Z,15.28
2022-10-14T08:28:56.762Z,15.34
2022-10-14T08:29:56.708Z,15.39
2022-10-14T08:30:56.718Z,15.47
2022-10-14T08:31:56.689Z,15.54
2022-10-14T08:32:56.820Z,15.60
2022-10-14T08:33:56.657Z,15.68
2022-10-14T08:34:56.635Z,15.72
2022-10-14T08:35:56.628Z,15.75
2022-10-14T08:36:56.645Z,15.83
2022-10-14T08:37:56.603Z,15.90
2022-10-14T08:38:56.633Z,15.97
2022-10-14T08:39:56.606Z,16.05
2022-10-14T08:40:56.557Z,16.08
2022-10-14T08:41:56.584Z,16.15
2022-10-14T08:42:56.537Z,16.21
2022-10-14T08:43:56.526Z,16.27
2022-10-14T08:44:56.509Z,16.31
2022-10-14T08:45:56.486Z,16.38
2022-10-14T08:46:56.589Z,16.42
2022-10-14T08:47:56.465Z,16.46
2022-10-14T08:48:56.455Z,16.49
2022-10-14T08:49:56.500Z,16.53
2022-10-14T08:50:56.425Z,16.58
2022-10-14T08:51:56.465Z,16.66
2022-10-14T08:52:56.610Z,16.70
2022-10-14T08:53:56.389Z,16.78
2022-10-14T08:54:56.375Z,16.78
2022-10-14T08:55:56.363Z,16.73
2022-10-14T08:56:56.412Z,16.75
2022-10-14T08:57:56.352Z,16.76
2022-10-14T08:58:56.374Z,16.81
2022-10-14T08:59:56.311Z,16.85
2022-10-14T09:00:56.295Z,16.91
2022-10-14T09:01:56.285Z,16.96
2022-10-14T09:02:56.307Z,17.01
2022-10-14T09:03:56.283Z,17.06
2022-10-14T09:04:56.404Z,17.03
2022-10-14T09:05:56.241Z,16.98
2022-10-14T09:06:56.214Z,16.94
2022-10-14T09:07:56.204Z,16.94
2022-10-14T09:08:56.187Z,16.93
2022-10-14T09:09:56.191Z,16.91
2022-10-14T09:10:56.223Z,16.93
2022-10-14T09:11:56.172Z,16.97
2022-10-14T09:12:56.133Z,16.91
2022-10-14T09:13:56.122Z,16.89
2022-10-14T09:14:56.133Z,16.91
2022-10-14T09:15:56.091Z,16.94
2022-10-14T09:16:56.192Z,16.97
2022-10-14T09:17:56.093Z,16.94
2022-10-14T09:18:56.092Z,16.97
2022-10-14T09:19:56.041Z,17.06
2022-10-14T09:20:56.032Z,17.08
2022-10-14T09:21:56.011Z,17.12
2022-10-14T09:22:56.035Z,17.15
2022-10-14T09:23:56.012Z,17.18
2022-10-14T09:24:55.984Z,17.25
2022-10-14T09:25:55.979Z,17.31
2022-10-14T09:27:55.942Z,17.44
2022-10-14T09:28:56.010Z,17.51
2022-10-14T09:29:55.934Z,17.58
2022-10-14T09:30:55.897Z,17.70
2022-10-14T09:31:55.890Z,17.72
2022-10-14T09:32:55.950Z,17.75
2022-10-14T09:33:55.869Z,17.89
2022-10-14T09:34:55.858Z,17.99
2022-10-14T09:35:55.890Z,18.08
2022-10-14T09:36:55.834Z,18.15
2022-10-14T09:37:55.811Z,18.21
2022-10-14T09:38:55.849Z,18.33
2022-10-14T09:39:55.790Z,18.32
2022-10-14T09:40:55.770Z,18.35
2022-10-14T09:41:55.769Z,18.29
2022-10-14T09:42:55.740Z,18.32
2022-10-14T09:43:55.733Z,18.25
2022-10-14T09:44:55.809Z,18.14
2022-10-14T09:45:55.699Z,18.20
2022-10-14T09:46:55.689Z,18.15
2022-10-14T09:47:55.873Z,18.14
2022-10-14T09:48:55.661Z,18.08
2022-10-14T09:49:55.658Z,18.00
2022-10-14T09:50:55.638Z,18.08
2022-10-14T09:51:55.622Z,18.07
2022-10-14T09:52:55.608Z,18.05
2022-10-14T09:53:55.662Z,18.00
2022-10-14T09:54:55.580Z,18.05
2022-10-14T09:55:55.569Z,18.10
2022-10-14T09:56:55.566Z,18.14
2022-10-14T09:57:55.580Z,18.21
2022-10-14T09:58:55.527Z,18.23
2022-10-14T09:59:55.519Z,18.25
2022-10-14T10:00:55.507Z,18.27
2022-10-14T10:01:55.500Z,18.32
2022-10-14T10:02:55.529Z,18.44
2022-10-14T10:03:55.546Z,18.58
2022-10-14T10:04:55.449Z,18.67
2022-10-14T10:05:55.440Z,18.72
2022-10-14T10:06:55.445Z,18.80
2022-10-14T10:07:55.439Z,18.84
2022-10-14T10:08:55.768Z,18.78
2022-10-14T10:09:55.384Z,18.81
2022-10-14T10:10:55.432Z,18.87
2022-10-14T10:11:55.370Z,18.94
2022-10-14T10:12:55.366Z,18.88
2022-10-14T10:14:02.422Z,18.88
2022-10-14T10:14:55.323Z,18.84
2022-10-14T10:15:55.311Z,18.80
2022-10-14T10:16:55.297Z,18.73
2022-10-14T10:17:55.282Z,18.78
2022-10-14T10:18:55.271Z,18.84
2022-10-14T10:19:55.677Z,18.98
2022-10-14T10:20:55.250Z,19.04
2022-10-14T10:21:55.230Z,19.06
2022-10-14T10:22:55.302Z,19.07
2022-10-14T10:23:55.209Z,19.02
2022-10-14T10:24:55.212Z,19.11
2022-10-14T10:25:55.241Z,19.23
2022-10-14T10:26:55.183Z,19.37
2022-10-14T10:27:55.141Z,19.39
2022-10-14T10:28:55.160Z,19.41
2022-10-14T10:29:55.123Z,19.37
2022-10-14T10:30:55.121Z,19.29
2022-10-14T10:31:55.132Z,19.41
2022-10-14T10:32:55.081Z,19.39
2022-10-14T10:33:55.070Z,19.47
2022-10-14T10:34:55.059Z,19.59
2022-10-14T10:35:55.218Z,19.65
2022-10-14T10:36:55.031Z,19.81
2022-10-14T10:37:55.061Z,19.88
2022-10-14T10:38:55.003Z,19.91
2022-10-14T10:39:54.996Z,19.91
2022-10-14T10:40:55.011Z,19.96
2022-10-14T10:41:54.970Z,20.13
2022-10-14T10:42:54.950Z,20.18
2022-10-14T10:43:54.979Z,20.24
2022-10-14T10:44:54.954Z,20.14
2022-10-14T10:45:55.228Z,20.14
2022-10-14T10:46:55.025Z,20.08
2022-10-14T10:47:54.935Z,20.11
2022-10-14T10:48:54.914Z,20.13
2022-10-14T10:50:54.875Z,20.21
2022-10-14T10:51:54.895Z,20.32
2022-10-14T10:52:54.847Z,20.42
2022-10-14T10:53:54.853Z,20.43
2022-10-14T10:54:54.822Z,20.52
2022-10-14T10:55:54.859Z,20.52
2022-10-14T10:56:54.850Z,20.38
2022-10-14T10:57:54.812Z,20.33
2022-10-14T10:58:54.774Z,20.36
2022-10-14T10:59:54.777Z,20.41
2022-10-14T11:00:54.745Z,20.36
2022-10-14T11:01:54.822Z,20.35
2022-10-14T11:02:55.356Z,20.36
2022-10-14T11:03:54.736Z,20.43
2022-10-14T11:04:54.685Z,20.48
2022-10-14T11:05:54.726Z,20.51
2022-10-14T11:06:54.676Z,20.50
2022-10-14T11:07:54.673Z,20.54
2022-10-14T11:08:55.057Z,20.59
2022-10-14T11:09:54.662Z,20.67
2022-10-14T11:10:54.615Z,20.73
2022-10-14T11:11:54.623Z,20.74
2022-10-14T11:12:54.603Z,20.72
2022-10-14T11:13:55.107Z,20.66
2022-10-14T11:14:54.755Z,20.61
2022-10-14T11:15:54.584Z,20.51
2022-10-14T11:16:54.541Z,20.41
2022-10-14T11:17:54.665Z,20.31
2022-10-14T11:18:54.513Z,20.20
2022-10-14T11:19:54.543Z,20.06
2022-10-14T11:20:54.664Z,20.01
2022-10-14T11:21:54.485Z,20.03
2022-10-14T11:22:54.459Z,20.03
2022-10-14T11:23:54.462Z,19.91
2022-10-14T11:24:54.438Z,19.77
2022-10-14T11:25:54.434Z,19.66
2022-10-14T11:26:54.746Z,19.61
2022-10-14T11:27:54.397Z,19.47
2022-10-14T11:28:54.435Z,19.41
2022-10-14T11:29:54.347Z,19.33
2022-10-14T11:30:54.326Z,19.32
2022-10-14T11:31:54.316Z,19.28
2022-10-14T11:32:56.562Z,19.28
2022-10-14T11:33:54.289Z,19.28
2022-10-14T11:34:54.276Z,19.28
2022-10-14T11:35:54.267Z,19.19
2022-10-14T11:36:54.245Z,19.06
2022-10-14T11:37:54.406Z,18.99
2022-10-14T11:38:54.255Z,18.95
2022-10-14T11:39:54.216Z,18.92
2022-10-14T11:40:54.194Z,18.84
2022-10-14T11:41:54.195Z,18.76
2022-10-14T11:42:54.185Z,18.69
2022-10-14T11:43:54.160Z,18.58
2022-10-14T11:44:54.226Z,18.57
2022-10-14T11:45:54.130Z,18.50
2022-10-14T11:46:54.116Z,18.42
2022-10-14T11:47:54.115Z,18.42
2022-10-14T11:48:54.090Z,18.44
2022-10-14T11:49:54.095Z,18.41
2022-10-14T11:50:54.255Z,18.36
2022-10-14T11:51:54.064Z,18.37
2022-10-14T11:52:54.033Z,18.30
2022-10-14T11:53:54.023Z,18.26
2022-10-14T11:54:54.025Z,18.18
2022-10-14T11:55:54.013Z,18.20
2022-10-14T11:56:54.023Z,18.23
2022-10-14T11:57:53.964Z,18.25
2022-10-14T11:58:53.969Z,18.25
2022-10-14T11:59:53.952Z,18.27
2022-10-14T12:00:53.954Z,18.32
2022-10-14T12:01:53.931Z,18.36
2022-10-14T12:02:54.023Z,18.47
2022-10-14T12:03:53.894Z,18.65
2022-10-14T12:04:53.924Z,18.75
2022-10-14T12:05:53.878Z,18.90
2022-10-14T12:06:53.863Z,19.10
2022-10-14T12:07:53.843Z,19.22
2022-10-14T12:08:53.904Z,19.32
2022-10-14T12:09:57.236Z,19.43
2022-10-14T12:10:54.823Z,19.54
2022-10-14T12:11:53.788Z,19.73
2022-10-14T12:12:53.774Z,19.83
2022-10-14T12:13:53.773Z,19.94
2022-10-14T12:14:53.962Z,19.87
2022-10-14T12:15:53.742Z,19.87
2022-10-14T12:16:53.727Z,19.84
2022-10-14T12:17:53.724Z,19.81
2022-10-14T12:18:53.701Z,19.94
2022-10-14T12:19:53.683Z,20.02
2022-10-14T12:20:53.733Z,20.05
2022-10-14T12:21:53.662Z,20.10
2022-10-14T12:22:53.643Z,20.05
2022-10-14T12:23:53.661Z,19.98
2022-10-14T12:24:53.616Z,19.96
2022-10-14T12:25:53.613Z,20.05
2022-10-14T12:26:53.633Z,20.03
2022-10-14T12:27:53.581Z,19.99
2022-10-14T12:28:54.197Z,19.98
2022-10-14T12:29:53.562Z,20.08
2022-10-14T12:30:53.553Z,20.13
2022-10-14T12:31:53.522Z,20.13
2022-10-14T12:32:53.549Z,20.20
2022-10-14T12:33:53.506Z,20.23
2022-10-14T12:34:53.591Z,20.33
2022-10-14T12:35:53.470Z,20.26
2022-10-14T12:36:53.508Z,20.17
2022-10-14T12:37:53.500Z,20.16
2022-10-14T12:38:53.546Z,20.11
2022-10-14T12:39:53.443Z,20.10
2022-10-14T12:40:53.412Z,20.10
2022-10-14T12:41:53.393Z,20.10
2022-10-14T12:42:53.723Z,20.10
2022-10-14T12:43:53.371Z,20.14
2022-10-14T12:44:53.359Z,20.23
2022-10-14T12:45:53.344Z,20.26
2022-10-14T12:46:53.340Z,20.35
2022-10-14T12:47:53.319Z,20.39
2022-10-14T12:48:53.350Z,20.39
2022-10-14T12:49:53.403Z,20.38
2022-10-14T12:50:53.288Z,20.33
2022-10-14T12:51:53.319Z,20.33
2022-10-14T12:52:53.260Z,20.24
2022-10-14T12:53:53.241Z,20.21
2022-10-14T12:54:53.317Z,20.18
2022-10-14T12:55:53.289Z,20.16
2022-10-14T12:56:53.324Z,20.17
2022-10-14T12:57:53.190Z,20.13
2022-10-14T12:58:53.289Z,19.98
2022-10-14T12:59:53.336Z,19.84
2022-10-14T13:00:53.230Z,19.74
2022-10-14T13:01:53.231Z,19.68
2022-10-14T13:02:53.127Z,19.69
2022-10-14T13:03:53.177Z,19.71
2022-10-14T13:04:53.100Z,19.71
2022-10-14T13:05:53.079Z,19.68
2022-10-14T13:06:53.207Z,19.74
2022-10-14T13:07:53.123Z,19.73
2022-10-14T13:08:53.051Z,19.73
2022-10-14T13:09:53.031Z,19.74
2022-10-14T13:10:53.028Z,19.71
2022-10-14T13:11:53.000Z,19.66
2022-10-14T13:12:53.092Z,19.65
2022-10-14T13:13:52.969Z,19.63
2022-10-14T13:14:53.989Z,19.48
2022-10-14T13:15:52.971Z,19.40
2022-10-14T13:16:52.941Z,19.40
2022-10-14T13:17:52.918Z,19.36
2022-10-14T13:18:52.961Z,19.31
2022-10-14T13:19:52.898Z,19.25
2022-10-14T13:20:52.889Z,19.25
2022-10-14T13:21:52.871Z,19.25
2022-10-14T13:22:52.867Z,19.25
2022-10-14T13:23:52.837Z,19.32
2022-10-14T13:24:52.918Z,19.43
2022-10-14T13:25:52.823Z,19.47
2022-10-14T13:26:52.812Z,19.50
2022-10-14T13:27:52.789Z,19.51
2022-10-14T13:28:52.859Z,19.55
2022-10-14T13:29:52.758Z,19.54
2022-10-14T13:30:52.801Z,19.44
2022-10-14T13:31:52.739Z,19.40
2022-10-14T13:32:52.729Z,19.40
2022-10-14T13:33:52.717Z,19.40
2022-10-14T13:34:52.755Z,19.40
2022-10-14T13:35:52.700Z,19.40
2022-10-14T13:36:52.807Z,19.39
2022-10-14T13:37:52.780Z,19.40
2022-10-14T13:38:52.707Z,19.40
2022-10-14T13:39:52.637Z,19.33
2022-10-14T13:40:52.619Z,19.31
2022-10-14T13:41:52.760Z,19.28
2022-10-14T13:42:52.727Z,19.19
2022-10-14T13:43:52.589Z,19.11
2022-10-14T13:44:52.575Z,19.04
2022-10-14T13:45:52.556Z,18.98
2022-10-14T13:46:52.537Z,18.90
2022-10-14T13:47:52.636Z,18.90
2022-10-14T13:48:52.658Z,18.88
2022-10-14T13:49:52.506Z,18.88
2022-10-14T13:50:54.166Z,18.87
2022-10-14T13:51:53.528Z,18.85
2022-10-14T13:52:52.467Z,18.88
2022-10-14T13:53:55.476Z,18.82
2022-10-14T13:54:52.446Z,18.80
2022-10-14T13:55:54.539Z,18.78
2022-10-14T13:57:01.762Z,18.75
2022-10-14T13:58:11.987Z,18.72
2022-10-14T13:58:53.387Z,18.72
2022-10-14T14:00:39.678Z,18.72
2022-10-14T14:00:53.390Z,18.72
2022-10-14T14:01:52.387Z,18.70
2022-10-14T14:02:55.928Z,18.70
2022-10-14T14:03:53.329Z,18.67
2022-10-14T14:04:52.309Z,18.62
2022-10-14T14:05:52.557Z,18.60
2022-10-14T14:07:18.315Z,18.62
2022-10-14T14:08:36.585Z,18.63
2022-10-14T14:08:53.265Z,18.66
2022-10-14T14:09:52.243Z,18.65
2022-10-14T14:11:14.876Z,18.63
2022-10-14T14:11:53.695Z,18.63
2022-10-14T14:12:52.277Z,18.55
2022-10-14T14:13:58.886Z,18.47
2022-10-14T14:14:53.195Z,18.44
2022-10-14T14:15:52.204Z,18.39
2022-10-14T14:16:52.228Z,18.36
2022-10-14T14:17:52.526Z,18.33
2022-10-14T14:19:04.043Z,18.27
2022-10-14T14:19:53.103Z,18.26
2022-10-14T14:20:52.109Z,18.23
2022-10-14T14:21:52.096Z,18.18
2022-10-14T14:22:52.194Z,18.14
2022-10-14T14:23:52.240Z,18.14
2022-10-14T14:24:52.042Z,18.15
2022-10-14T14:26:17.894Z,18.15
2022-10-14T14:26:53.071Z,18.18
2022-10-14T14:27:52.011Z,18.21
2022-10-14T14:28:52.086Z,18.21
2022-10-14T14:29:52.103Z,18.21
2022-10-14T14:30:54.656Z,18.21
2022-10-14T14:32:05.964Z,18.25
2022-10-14T14:32:52.972Z,18.26
2022-10-14T14:33:51.931Z,18.27
2022-10-14T14:35:51.973Z,18.32
2022-10-14T14:36:55.513Z,18.30
2022-10-14T14:37:56.239Z,18.33
2022-10-14T14:38:51.873Z,18.37
2022-10-14T14:39:51.842Z,18.42
2022-10-14T14:40:51.951Z,18.48
2022-10-14T14:41:51.831Z,18.52
2022-10-14T14:42:52.001Z,18.52
2022-10-14T14:44:07.600Z,18.51
2022-10-14T14:44:52.786Z,18.48
2022-10-14T14:45:51.762Z,18.50
2022-10-14T14:46:51.759Z,18.48
2022-10-14T14:47:51.741Z,18.47
2022-10-14T14:48:54.257Z,18.45
2022-10-14T14:49:57.458Z,18.48
2022-10-14T14:50:52.700Z,18.47
2022-10-14T14:51:51.690Z,18.47
2022-10-14T14:52:51.787Z,18.44
2022-10-14T14:53:51.660Z,18.41
2022-10-14T14:54:51.649Z,18.39
2022-10-14T14:55:51.639Z,18.39
2022-10-14T14:56:51.662Z,18.37
2022-10-14T14:57:51.650Z,18.41
2022-10-14T14:58:51.591Z,18.36
2022-10-14T14:59:51.582Z,18.36
2022-10-14T15:00:51.571Z,18.33
2022-10-14T15:01:51.602Z,18.32
2022-10-14T15:02:51.541Z,18.30
2022-10-14T15:04:13.100Z,18.30
2022-10-14T15:04:52.519Z,18.26
2022-10-14T15:05:51.642Z,18.18
2022-10-14T15:06:51.989Z,18.14
2022-10-14T15:07:51.478Z,18.11
2022-10-14T15:08:51.467Z,18.07
2022-10-14T15:09:51.492Z,18.05
2022-10-14T15:10:51.449Z,18.05
2022-10-14T15:11:51.438Z,18.02
2022-10-14T15:12:51.409Z,17.96
2022-10-14T15:13:51.397Z,17.89
2022-10-14T15:14:51.435Z,17.84
2022-10-14T15:15:51.607Z,17.81
2022-10-14T15:16:51.356Z,17.78
2022-10-14T15:17:51.347Z,17.75
2022-10-14T15:18:51.509Z,17.77
2022-10-14T15:19:51.347Z,17.77
2022-10-14T15:20:51.298Z,17.72
2022-10-14T15:21:51.409Z,17.72
2022-10-14T15:22:51.287Z,17.68
2022-10-14T15:23:51.322Z,17.64
2022-10-14T15:24:51.248Z,17.63
2022-10-14T15:25:51.290Z,17.62
2022-10-14T15:26:51.277Z,17.58
2022-10-14T15:27:51.249Z,17.58
2022-10-14T15:28:51.335Z,17.58
2022-10-14T15:29:51.218Z,17.56
2022-10-14T15:30:51.178Z,17.54
2022-10-14T15:31:51.185Z,17.52
2022-10-14T15:32:51.160Z,17.48
2022-10-14T15:33:51.162Z,17.46
2022-10-14T15:34:51.181Z,17.46
2022-10-14T15:35:51.165Z,17.41
2022-10-14T15:36:51.197Z,17.41
2022-10-14T15:37:51.078Z,17.38
2022-10-14T15:38:51.068Z,17.38
2022-10-14T15:39:51.057Z,17.37
2022-10-14T15:40:51.039Z,17.36
2022-10-14T15:41:51.024Z,17.33
2022-10-14T15:42:51.065Z,17.33
2022-10-14T15:43:51.016Z,17.31
2022-10-14T15:44:50.985Z,17.28
2022-10-14T15:45:50.995Z,17.26
2022-10-14T15:46:50.963Z,17.26
2022-10-14T15:47:50.978Z,17.25
2022-10-14T15:48:51.113Z,17.25
2022-10-14T15:49:50.914Z,17.23
2022-10-14T15:50:50.923Z,17.23
2022-10-14T15:51:50.885Z,17.22
2022-10-14T15:52:50.877Z,17.22
2022-10-14T15:53:50.872Z,17.21
2022-10-14T15:54:50.910Z,17.18
2022-10-14T15:55:50.886Z,17.15
2022-10-14T15:56:50.983Z,17.12
2022-10-14T15:57:50.818Z,17.11
2022-10-14T15:58:50.805Z,17.08
2022-10-14T15:59:50.813Z,17.06
2022-10-14T16:00:50.858Z,17.03
2022-10-14T16:01:50.886Z,17.01
2022-10-14T16:02:50.745Z,16.98
2022-10-14T16:03:50.765Z,16.94
2022-10-14T16:05:18.297Z,16.89
2022-10-14T16:05:52.014Z,16.85
2022-10-14T16:06:50.719Z,16.79
2022-10-14T16:07:50.681Z,16.76
2022-10-14T16:08:50.693Z,16.70
2022-10-14T16:09:50.672Z,16.66
2022-10-14T16:10:50.647Z,16.61
2022-10-14T16:11:50.716Z,16.60
2022-10-14T16:12:50.623Z,16.53
2022-10-14T16:13:57.606Z,16.50
2022-10-14T16:14:50.588Z,16.49
2022-10-14T16:15:50.570Z,16.46
2022-10-14T16:16:52.257Z,16.43
2022-10-14T16:17:52.988Z,16.41
2022-10-14T16:18:50.545Z,16.38
2022-10-14T16:19:50.525Z,16.34
2022-10-14T16:20:50.517Z,16.34
2022-10-14T16:21:50.495Z,16.28
2022-10-14T16:22:50.486Z,16.27
2022-10-14T16:23:50.676Z,16.24
2022-10-14T16:24:50.462Z,16.23
2022-10-14T16:25:50.443Z,16.21
2022-10-14T16:26:50.436Z,16.17
2022-10-14T16:27:50.415Z,16.17
2022-10-14T16:28:50.426Z,16.14
2022-10-14T16:29:50.427Z,16.14
2022-10-14T16:30:50.377Z,16.11
2022-10-14T16:31:50.365Z,16.08
2022-10-14T16:32:50.370Z,16.07
2022-10-14T16:33:50.334Z,16.05
2022-10-14T16:34:50.330Z,16.02
2022-10-14T16:35:50.405Z,16.02
2022-10-14T16:36:50.304Z,16.01
2022-10-14T16:37:50.326Z,15.97
2022-10-14T16:38:50.275Z,15.96
2022-10-14T16:39:50.300Z,15.94
2022-10-14T16:40:50.261Z,15.93
2022-10-14T16:41:50.301Z,15.92
2022-10-14T16:42:50.224Z,15.92
2022-10-14T16:43:50.267Z,15.89
2022-10-14T16:44:50.193Z,15.89
2022-10-14T16:45:50.191Z,15.87
2022-10-14T16:46:50.230Z,15.87
2022-10-14T16:47:50.153Z,15.84
2022-10-14T16:48:50.161Z,15.84
2022-10-14T16:49:50.123Z,15.86
2022-10-14T16:50:50.112Z,15.84
2022-10-14T16:51:50.098Z,15.83
2022-10-14T16:52:50.182Z,15.83
2022-10-14T16:53:50.092Z,15.80
2022-10-14T16:54:50.062Z,15.80
2022-10-14T16:55:50.042Z,15.80
2022-10-14T16:56:50.073Z,15.78